Time;durP1;ratioP1;P1;durP2;ratioP2;P2;SDS_P1;SDS_P2;PMS_P1;PMS_P2;Temp;Humidity;BMP_temperature;BMP_pressure;BME280_temperature;BME280_humidity;BME280_pressure;Samples;Min_cycle;Max_cycle;Signal;HPM_P1;HPM_P2
2023/01/06 00:02:27;;;;;;;;;;;;;;;26.61;49.72;97112.89;608787;233;68487;-71
2023/01/06 00:04:54;;;;;;;;;;;;;;;26.61;49.16;97112.89;608724;233;64835;-71
2023/01/06 00:07:22;;;;;;;;;;;;;;;26.61;49.51;97112.89;608728;233;66421;-71
2023/01/06 00:09:49;;;;;;;;;;;;;;;26.60;49.17;97115.88;608727;233;66509;-71
2023/01/06 00:12:17;;;;;;;;;;;;;;;26.60;48.82;97116.70;608700;233;63651;-71
2023/01/06 00:14:46;;;;;;;;;;;;;;;26.59;47.84;97115.09;608796;233;66581;-71
2023/01/06 00:17:14;;;;;;;;;;;;;;;26.59;49.23;97122.38;608738;233;68494;-71
2023/01/06 00:19:41;;;;;;;;;;;;;;;26.58;49.06;97118.89;608721;233;62753;-71
2023/01/06 00:22:09;;;;;;;;;;;;;;;26.56;49.69;97116.49;608735;233;68603;-71
2023/01/06 00:24:36;;;;;;;;;;;;;;;26.57;49.23;97122.67;608745;233;68291;-71
2023/01/06 00:27:03;;;;;;;;;;;;;;;26.56;48.60;97129.97;608723;233;64851;-71
2023/01/06 00:29:31;;;;;;;;;;;;;;;26.56;48.91;97121.09;608706;232;66396;-71
2023/01/06 00:31:59;;;;;;;;;;;;;;;26.56;48.85;97121.09;608693;233;68873;-71
2023/01/06 00:34:27;;;;;;;;;;;;;;;26.55;46.37;97116.81;608706;233;66027;-71
2023/01/06 00:36:55;;;;;;;;;;;;;;;26.54;48.68;97113.30;608730;233;68619;-70
2023/01/06 00:39:23;;;;;;;;;;;;;;;26.53;47.96;97110.92;608721;233;66679;-70
2023/01/06 00:42:02;;;;;;;;;;;;;;;26.51;49.33;97110.42;608769;233;62834;-70
2023/01/06 00:44:34;;;;;;;;;;;;;;;26.51;48.80;97111.22;608738;233;68618;-69
2023/01/06 00:47:04;;;;;;;;;;;;;;;26.51;49.46;97091.56;608732;233;68892;-70
2023/01/06 00:49:31;;;;;;;;;;;;;;;26.49;51.45;97080.25;608749;233;63006;-69
2023/01/06 00:51:59;;;;;;;;;;;;;;;26.49;50.41;97082.94;608737;233;66129;-69
2023/01/06 00:54:26;;;;;;;;;;;;;;;26.48;50.13;97070.58;608811;233;68549;-69
2023/01/06 00:56:54;;;;;;;;;;;;;;;26.47;48.88;97066.31;608725;233;62898;-69
2023/01/06 00:59:23;;;;;;;;;;;;;;;26.46;50.16;97068.18;608731;233;66693;-69
2023/01/06 01:01:51;;;;;;;;;;;;;;;26.45;47.75;97079.28;608737;233;66628;-69
2023/01/06 01:04:19;;;;;;;;;;;;;;;26.46;50.18;97072.78;608699;233;62700;-69
2023/01/06 01:06:48;;;;;;;;;;;;;;;26.45;48.51;97084.67;608762;233;69303;-69
2023/01/06 01:09:18;;;;;;;;;;;;;;;26.43;50.21;97076.88;608697;233;69030;-71
2023/01/06 01:14:31;;;;;;;;;;;;;;;26.43;50.08;97073.39;608731;233;68699;-70
2023/01/06 01:16:59;;;;;;;;;;;;;;;26.42;50.20;97063.73;608680;233;68569;-70
2023/01/06 01:19:27;;;;;;;;;;;;;;;26.42;49.98;97071.81;608750;233;65036;-70
2023/01/06 01:21:54;;;;;;;;;;;;;;;26.41;50.41;97065.63;608752;233;67351;-70
2023/01/06 01:24:22;;;;;;;;;;;;;;;26.38;50.74;97076.99;608729;233;68660;-70
2023/01/06 01:26:50;;;;;;;;;;;;;;;26.38;48.46;97074.30;608693;233;64950;-70
2023/01/06 01:29:19;;;;;;;;;;;;;;;26.39;52.48;97077.81;608682;231;68662;-70
2023/01/06 01:31:46;;;;;;;;;;;;;;;26.37;50.54;97064.63;608731;233;66450;-70
2023/01/06 01:34:15;;;;;;;;;;;;;;;26.37;51.33;97069.23;608759;233;65223;-70
2023/01/06 01:36:43;;;;;;;;;;;;;;;26.36;51.61;97065.75;608806;233;68630;-70
2023/01/06 01:39:12;;;;;;;;;;;;;;;26.34;50.92;97060.65;608746;233;68626;-70
2023/01/06 01:41:40;;;;;;;;;;;;;;;26.34;49.06;97046.38;608739;233;65138;-70
2023/01/06 01:44:26;;;;;;;;;;;;;;;26.34;49.95;97051.77;608748;233;68371;-70
2023/01/06 01:46:54;;;;;;;;;;;;;;;26.33;50.71;97050.19;608717;233;69133;-70
2023/01/06 01:49:23;;;;;;;;;;;;;;;26.32;52.23;97053.97;608786;233;64877;-70
2023/01/06 01:51:52;;;;;;;;;;;;;;;26.31;51.61;97055.08;608653;232;68548;-70
2023/01/06 01:54:21;;;;;;;;;;;;;;;26.29;50.42;97058.06;608711;233;68612;-70
2023/01/06 01:56:51;;;;;;;;;;;;;;;26.29;52.24;97049.98;608708;232;63065;-70
2023/01/06 01:59:20;;;;;;;;;;;;;;;26.28;50.47;97053.00;608772;233;68494;-70
2023/01/06 02:01:49;;;;;;;;;;;;;;;26.28;49.46;97061.08;608735;233;68563;-70
2023/01/06 02:04:18;;;;;;;;;;;;;;;26.27;50.39;97044.13;608837;233;64865;-70
2023/01/06 02:06:49;;;;;;;;;;;;;;;26.26;50.55;97064.06;608730;233;68926;-70
2023/01/06 02:09:17;;;;;;;;;;;;;;;26.26;49.16;97069.45;608768;233;68657;-70
2023/01/06 02:11:49;;;;;;;;;;;;;;;26.25;49.79;97073.26;608732;233;62516;-70
2023/01/06 02:14:16;;;;;;;;;;;;;;;26.25;49.25;97084.03;608584;232;66800;-70
2023/01/06 02:16:48;;;;;;;;;;;;;;;26.23;49.61;97083.53;608700;233;74613;-70
2023/01/06 02:19:20;;;;;;;;;;;;;;;26.23;51.21;97080.05;608692;233;64831;-70
2023/01/06 02:21:59;;;;;;;;;;;;;;;26.22;50.16;97081.95;608734;233;66599;-70
2023/01/06 02:24:33;;;;;;;;;;;;;;;26.21;50.78;97074.16;608715;233;66684;-70
2023/01/06 02:27:08;;;;;;;;;;;;;;;26.20;49.97;97086.84;608281;232;65685;-70
2023/01/06 02:29:54;;;;;;;;;;;;;;;26.18;51.09;97078.25;609434;231;68927;-70
2023/01/06 02:32:32;;;;;;;;;;;;;;;26.18;50.27;97077.47;610067;232;69078;-70
2023/01/06 02:35:07;;;;;;;;;;;;;;;26.17;51.24;97083.97;610025;232;65103;-70
2023/01/06 02:37:46;;;;;;;;;;;;;;;26.16;51.61;97091.22;609924;232;68562;-70
2023/01/06 02:40:19;;;;;;;;;;;;;;;26.15;49.69;97100.41;610072;232;68767;-70
2023/01/06 02:43:07;;;;;;;;;;;;;;;26.14;50.73;97104.22;609925;232;65581;-70
2023/01/06 02:45:43;;;;;;;;;;;;;;;26.13;51.78;97103.39;610089;232;66494;-71
2023/01/06 02:48:18;;;;;;;;;;;;;;;26.11;51.91;97099.44;610075;232;69039;-71
2023/01/06 02:50:48;;;;;;;;;;;;;;;26.10;49.65;97104.00;609876;232;62400;-70
2023/01/06 02:53:29;;;;;;;;;;;;;;;26.11;51.18;97099.44;610016;232;69090;-69
2023/01/06 02:55:58;;;;;;;;;;;;;;;26.10;51.02;97097.83;610135;232;65791;-68
2023/01/06 02:58:36;;;;;;;;;;;;;;;26.10;50.48;97111.30;610074;232;65107;-69
2023/01/06 03:01:07;;;;;;;;;;;;;;;26.09;50.92;97113.19;610069;232;66563;-70
2023/01/06 03:03:36;;;;;;;;;;;;;;;26.08;50.41;97118.88;610064;232;69210;-70
2023/01/06 03:06:05;;;;;;;;;;;;;;;26.08;50.50;97121.56;610082;232;64841;-70
2023/01/06 03:08:33;;;;;;;;;;;;;;;26.07;50.60;97136.92;609726;232;66405;-70
2023/01/06 03:11:02;;;;;;;;;;;;;;;26.06;50.59;97139.94;610124;232;66625;-70
2023/01/06 03:13:31;;;;;;;;;;;;;;;26.06;51.48;97142.63;610072;232;65611;-70
2023/01/06 03:15:59;;;;;;;;;;;;;;;26.05;51.27;97146.41;609893;232;66023;-70
2023/01/06 03:18:27;;;;;;;;;;;;;;;26.05;51.63;97154.48;609962;232;66505;-70
2023/01/06 03:20:56;;;;;;;;;;;;;;;26.03;48.56;97156.70;609834;232;63637;-70
2023/01/06 03:23:24;;;;;;;;;;;;;;;26.03;49.55;97167.48;609948;232;68264;-70
2023/01/06 03:25:51;;;;;;;;;;;;;;;26.02;49.94;97166.66;609917;232;68507;-70
2023/01/06 03:28:21;;;;;;;;;;;;;;;26.02;51.79;97165.86;609870;232;43643;-70
2023/01/06 03:30:50;;;;;;;;;;;;;;;26.00;50.72;97158.09;608742;233;68972;-69
2023/01/06 03:33:19;;;;;;;;;;;;;;;26.00;50.87;97158.09;607488;230;68647;-69
2023/01/06 03:35:58;;;;;;;;;;;;;;;25.99;51.09;97164.56;602471;235;62957;-69
2023/01/06 03:38:27;;;;;;;;;;;;;;;25.99;49.86;97163.77;590860;239;68510;-70
2023/01/06 03:40:56;;;;;;;;;;;;;;;25.98;50.17;97159.49;603849;234;68924;-69
2023/01/06 03:43:25;;;;;;;;;;;;;;;25.98;50.11;97159.49;602977;235;65386;-69
2023/01/06 03:46:00;;;;;;;;;;;;;;;25.98;51.40;97164.88;603923;234;66711;-69
2023/01/06 03:48:31;;;;;;;;;;;;;;;25.97;51.12;97165.95;603807;234;46918;-69
2023/01/06 03:51:03;;;;;;;;;;;;;;;25.96;50.89;97167.86;604242;235;65040;-70
2023/01/06 03:53:48;;;;;;;;;;;;;;;25.95;50.95;97160.09;598993;235;66593;-70
2023/01/06 03:56:28;;;;;;;;;;;;;;;25.93;48.48;97159.59;604233;232;50187;-69
2023/01/06 03:58:57;;;;;;;;;;;;;;;25.93;49.92;97162.28;604200;234;65038;-69
2023/01/06 04:01:25;;;;;;;;;;;;;;;25.91;50.94;97160.67;604154;235;66134;-69
2023/01/06 04:03:54;;;;;;;;;;;;;;;25.91;49.72;97162.56;604176;235;68619;-69
2023/01/06 04:06:23;;;;;;;;;;;;;;;25.90;50.15;97161.78;604196;235;65065;-69
2023/01/06 04:08:51;;;;;;;;;;;;;;;25.90;50.27;97174.45;604245;235;69170;-69
2023/01/06 04:14:04;;;;;;;;;;;;;;;25.89;51.58;97175.53;604180;235;62779;-69
2023/01/06 04:16:32;;;;;;;;;;;;;;;25.87;49.19;97170.45;604209;235;67550;-69
2023/01/06 04:19:00;;;;;;;;;;;;;;;25.87;49.05;97183.92;604157;235;66801;-69
2023/01/06 04:21:27;;;;;;;;;;;;;;;25.85;49.41;97183.41;604277;235;62821;-69
2023/01/06 04:23:56;;;;;;;;;;;;;;;25.85;50.51;97191.48;604214;235;68717;-69
2023/01/06 04:26:23;;;;;;;;;;;;;;;25.84;51.14;97197.98;604134;235;67514;-70
2023/01/06 04:28:51;;;;;;;;;;;;;;;25.84;51.41;97197.98;605698;233;62816;-69
2023/01/06 04:31:19;;;;;;;;;;;;;;;25.83;50.87;97204.44;608219;233;68708;-69
2023/01/06 04:33:48;;;;;;;;;;;;;;;25.82;52.54;97205.52;608200;233;69075;-70
2023/01/06 04:36:15;;;;;;;;;;;;;;;25.82;50.90;97202.83;608274;233;64884;-69
2023/01/06 04:38:44;;;;;;;;;;;;;;;25.81;50.26;97209.32;608184;232;46910;-69
2023/01/06 04:41:12;;;;;;;;;;;;;;;25.81;50.45;97198.55;608186;233;68586;-69
2023/01/06 04:43:39;;;;;;;;;;;;;;;25.81;51.48;97193.16;608187;233;62956;-69
2023/01/06 04:46:07;;;;;;;;;;;;;;;25.79;51.05;97187.27;608196;233;66638;-69
2023/01/06 04:48:34;;;;;;;;;;;;;;;25.78;50.43;97185.69;608241;233;68616;-69
2023/01/06 04:51:09;;;;;;;;;;;;;;;25.78;49.44;97188.37;608198;233;64944;-69
2023/01/06 04:53:38;;;;;;;;;;;;;;;25.78;48.58;97185.69;608161;233;68733;-69
2023/01/06 04:56:07;;;;;;;;;;;;;;;25.76;50.03;97195.95;608206;233;66468;-69
2023/01/06 04:58:35;;;;;;;;;;;;;;;25.77;50.43;97197.53;607985;233;64822;-69
2023/01/06 05:01:04;;;;;;;;;;;;;;;25.76;52.04;97190.56;608281;233;68922;-69
2023/01/06 05:03:31;;;;;;;;;;;;;;;25.74;50.45;97200.83;608205;233;66385;-69
2023/01/06 05:06:03;;;;;;;;;;;;;;;25.74;51.40;97192.75;608162;233;65049;-69
2023/01/06 05:08:31;;;;;;;;;;;;;;;25.73;51.16;97193.86;608202;233;66680;-69
2023/01/06 05:11:00;;;;;;;;;;;;;;;25.73;50.91;97191.16;608187;233;66741;-69
2023/01/06 05:13:28;;;;;;;;;;;;;;;25.72;51.47;97194.93;608221;233;65067;-69
2023/01/06 05:15:56;;;;;;;;;;;;;;;25.71;51.33;97196.04;608247;233;66579;-69
2023/01/06 05:18:23;;;;;;;;;;;;;;;25.72;51.19;97202.22;608204;233;67602;-69
2023/01/06 05:20:51;;;;;;;;;;;;;;;25.69;49.93;97207.09;608193;233;64302;-68
2023/01/06 05:23:19;;;;;;;;;;;;;;;25.69;51.35;97206.30;608208;233;67560;-69
2023/01/06 05:25:47;;;;;;;;;;;;;;;25.67;51.59;97214.69;608197;233;68500;-69
2023/01/06 05:28:14;;;;;;;;;;;;;;;25.67;50.96;97225.45;607760;233;65075;-69
2023/01/06 05:30:41;;;;;;;;;;;;;;;25.68;51.62;97228.94;604215;235;66579;-69
2023/01/06 05:33:09;;;;;;;;;;;;;;;25.66;51.47;97234.60;604177;235;69060;-69
2023/01/06 05:35:37;;;;;;;;;;;;;;;25.66;49.94;97256.13;604207;235;65031;-69
2023/01/06 05:38:04;;;;;;;;;;;;;;;25.65;49.68;97268.00;604251;235;68813;-68
2023/01/06 05:40:32;;;;;;;;;;;;;;;25.65;51.13;97253.75;604262;235;68563;-69
2023/01/06 05:42:59;;;;;;;;;;;;;;;25.65;51.06;97259.93;604200;235;64844;-68
2023/01/06 05:45:27;;;;;;;;;;;;;;;25.65;52.06;97253.75;604187;235;68718;-68
2023/01/06 05:47:54;;;;;;;;;;;;;;;25.65;52.72;97270.70;604087;235;66127;-68
2023/01/06 05:50:22;;;;;;;;;;;;;;;25.65;52.16;97270.70;604229;235;63867;-68
2023/01/06 05:52:50;;;;;;;;;;;;;;;25.64;51.67;97257.52;604236;235;68620;-68
2023/01/06 05:55:17;;;;;;;;;;;;;;;25.65;53.54;97275.28;604218;235;68507;-68
2023/01/06 05:57:45;;;;;;;;;;;;;;;25.64;51.63;97269.08;604183;235;64995;-68
2023/01/06 06:00:13;;;;;;;;;;;;;;;25.65;52.43;97270.70;604168;235;66534;-68
2023/01/06 06:02:40;;;;;;;;;;;;;;;25.65;52.04;97273.39;604214;235;66203;-68
2023/01/06 06:05:09;;;;;;;;;;;;;;;25.65;51.40;97280.67;604252;235;65064;-68
2023/01/06 06:07:37;;;;;;;;;;;;;;;25.66;52.88;97280.36;604121;235;68711;-68
2023/01/06 06:10:05;;;;;;;;;;;;;;;25.66;52.49;97264.20;604192;235;66105;-68
2023/01/06 06:12:32;;;;;;;;;;;;;;;25.67;50.85;97276.59;604173;235;65072;-68
2023/01/06 06:15:00;;;;;;;;;;;;;;;25.68;51.78;97277.38;604208;235;68824;-68
2023/01/06 06:17:27;;;;;;;;;;;;;;;25.69;52.97;97279.77;604184;235;68785;-68
2023/01/06 06:19:55;;;;;;;;;;;;;;;25.69;50.60;97282.45;604239;235;64904;-68
2023/01/06 06:22:22;;;;;;;;;;;;;;;25.72;52.44;97283.76;604134;235;68641;-68
2023/01/06 06:24:50;;;;;;;;;;;;;;;25.73;52.77;97285.38;604192;235;68635;-68
2023/01/06 06:27:17;;;;;;;;;;;;;;;25.75;52.09;97285.86;604143;235;65120;-68
2023/01/06 06:29:45;;;;;;;;;;;;;;;25.76;53.52;97290.16;604151;233;68843;-69
2023/01/06 06:32:12;;;;;;;;;;;;;;;25.77;52.86;97299.83;604237;235;66846;-68
2023/01/06 06:34:39;;;;;;;;;;;;;;;25.79;53.26;97286.88;604186;235;63820;-68
2023/01/06 06:37:07;;;;;;;;;;;;;;;25.79;53.39;97292.27;604165;235;68825;-68
2023/01/06 06:39:34;;;;;;;;;;;;;;;25.81;52.75;97290.08;604194;235;66351;-68
2023/01/06 06:42:02;;;;;;;;;;;;;;;25.83;54.51;97290.59;604171;235;62927;-68
2023/01/06 06:44:29;;;;;;;;;;;;;;;25.84;52.82;97294.11;604230;235;68773;-68
2023/01/06 06:46:58;;;;;;;;;;;;;;;25.87;54.57;97294.30;604072;235;69009;-68
2023/01/06 06:49:25;;;;;;;;;;;;;;;25.89;53.90;97288.61;604166;235;63091;-69
2023/01/06 06:51:53;;;;;;;;;;;;;;;25.89;52.06;97300.20;604160;235;66500;-69
2023/01/06 06:54:20;;;;;;;;;;;;;;;25.92;51.02;97309.58;604151;235;68576;-69
2023/01/06 06:56:48;;;;;;;;;;;;;;;25.94;53.07;97309.27;604197;235;64941;-74
2023/01/06 06:59:15;;;;;;;;;;;;;;;25.96;54.87;97297.11;604167;235;66380;-70
2023/01/06 07:01:43;;;;;;;;;;;;;;;25.96;54.66;97305.19;604160;235;68465;-69
2023/01/06 07:04:10;;;;;;;;;;;;;;;25.99;53.42;97287.64;603579;235;64871;-68
2023/01/06 07:06:38;;;;;;;;;;;;;;;26.02;52.46;97295.91;604120;235;68306;-68
2023/01/06 07:09:05;;;;;;;;;;;;;;;26.05;53.88;97294.52;604173;235;68907;-75
2023/01/06 07:11:33;;;;;;;;;;;;;;;26.07;50.46;97303.91;603998;235;62948;-69
2023/01/06 07:14:00;;;;;;;;;;;;;;;26.09;51.34;97303.63;607871;230;66861;-67
2023/01/06 07:16:28;;;;;;;;;;;;;;;26.11;49.88;97336.45;614570;231;68722;-67
2023/01/06 07:18:55;;;;;;;;;;;;;;;26.16;49.45;97327.46;614557;231;65004;-68
2023/01/06 07:21:22;;;;;;;;;;;;;;;26.17;51.76;97346.03;614608;231;68798;-67
2023/01/06 07:23:50;;;;;;;;;;;;;;;26.19;51.20;97349.23;614618;231;68610;-67
2023/01/06 07:26:17;;;;;;;;;;;;;;;26.21;52.63;97352.41;614563;231;65041;-63
2023/01/06 07:28:45;;;;;;;;;;;;;;;26.23;49.37;97349.44;614590;231;68864;-65
2023/01/06 07:31:12;;;;;;;;;;;;;;;26.25;47.37;97350.73;614601;231;68668;-65
2023/01/06 07:33:40;;;;;;;;;;;;;;;26.29;47.88;97359.02;614531;231;65052;-64
2023/01/06 07:36:08;;;;;;;;;;;;;;;26.31;50.52;97373.79;614583;231;68670;-64
2023/01/06 07:38:35;;;;;;;;;;;;;;;26.33;49.75;97365.42;614623;231;68732;-69
2023/01/06 07:41:03;;;;;;;;;;;;;;;26.35;48.16;97366.73;614503;231;66131;-69
2023/01/06 07:43:30;;;;;;;;;;;;;;;26.38;49.30;97394.15;614621;231;68966;-69
2023/01/06 07:45:58;;;;;;;;;;;;;;;26.39;47.35;97382.30;614605;231;68796;-70
2023/01/06 07:48:25;;;;;;;;;;;;;;;26.42;47.54;97381.70;614545;231;64980;-68
2023/01/06 07:50:53;;;;;;;;;;;;;;;26.44;49.38;97390.30;614549;231;68852;-68
2023/01/06 07:53:20;;;;;;;;;;;;;;;26.46;50.28;97385.38;614900;230;68496;-69
2023/01/06 07:55:52;;;;;;;;;;;;;;;26.46;51.24;97386.17;614397;230;62767;-68
2023/01/06 07:58:20;;;;;;;;;;;;;;;26.48;49.44;97391.28;614614;230;66438;-69
2023/01/06 08:00:47;;;;;;;;;;;;;;;26.49;48.44;97399.08;614986;230;66868;-69
2023/01/06 08:03:17;;;;;;;;;;;;;;;26.51;50.08;97382.62;614930;230;44889;-69
2023/01/06 08:05:44;;;;;;;;;;;;;;;26.52;47.63;97393.13;614936;230;66392;-69
2023/01/06 08:08:12;;;;;;;;;;;;;;;26.53;47.69;97394.70;614922;230;66469;-70
2023/01/06 08:10:42;;;;;;;;;;;;;;;26.54;48.57;97371.24;614681;230;62852;-70
2023/01/06 08:13:10;;;;;;;;;;;;;;;26.56;47.21;97369.85;615012;230;66437;-69
2023/01/06 08:15:39;;;;;;;;;;;;;;;26.58;50.05;97374.95;614553;230;50302;-70
2023/01/06 08:18:07;;;;;;;;;;;;;;;26.58;50.09;97374.95;615011;230;64883;-70
2023/01/06 08:20:36;;;;;;;;;;;;;;;26.59;47.72;97364.97;614991;230;49572;-74
2023/01/06 08:23:04;;;;;;;;;;;;;;;26.58;49.06;97376.86;614914;230;68607;-68
2023/01/06 08:25:31;;;;;;;;;;;;;;;26.56;50.26;97396.80;614934;230;65094;-69
2023/01/06 08:27:59;;;;;;;;;;;;;;;26.55;51.91;97392.52;614927;230;68926;-68
2023/01/06 08:30:27;;;;;;;;;;;;;;;26.53;50.42;97402.00;613667;231;68702;-69
2023/01/06 08:32:58;;;;;;;;;;;;;;;26.53;49.13;97402.00;613698;231;64910;-68
2023/01/06 08:35:26;;;;;;;;;;;;;;;26.51;51.13;97398.80;613702;231;68816;-68
2023/01/06 08:37:53;;;;;;;;;;;;;;;26.52;44.13;97425.47;613639;231;68391;-68
2023/01/06 08:40:21;;;;;;;;;;;;;;;26.53;49.00;97404.70;613737;231;65106;-68
2023/01/06 08:42:48;;;;;;;;;;;;;;;26.53;50.69;97435.14;613721;231;68972;-68
2023/01/06 08:45:16;;;;;;;;;;;;;;;26.52;50.49;97422.77;613658;231;68879;-71
2023/01/06 08:47:43;;;;;;;;;;;;;;;26.52;48.93;97417.37;613710;231;64997;-69
2023/01/06 08:50:11;;;;;;;;;;;;;;;26.52;49.57;97421.98;613599;231;68722;-69
2023/01/06 08:52:38;;;;;;;;;;;;;;;26.50;50.25;97397.97;613677;231;68641;-69
2023/01/06 08:55:05;;;;;;;;;;;;;;;26.50;49.45;97402.56;613772;231;62901;-70
2023/01/06 08:57:33;;;;;;;;;;;;;;;26.49;49.37;97417.13;613714;231;66490;-71
2023/01/06 09:00:01;;;;;;;;;;;;;;;26.49;49.98;97427.91;613723;231;68852;-72
2023/01/06 09:02:30;;;;;;;;;;;;;;;26.48;49.30;97402.06;613724;231;64884;-70
2023/01/06 09:04:57;;;;;;;;;;;;;;;26.47;48.85;97401.27;613684;231;66709;-71
2023/01/06 09:07:25;;;;;;;;;;;;;;;26.48;44.61;97408.24;613708;231;68414;-69
2023/01/06 09:09:52;;;;;;;;;;;;;;;26.47;48.90;97406.66;613723;231;64750;-70
2023/01/06 09:12:20;;;;;;;;;;;;;;;26.46;49.79;97402.34;613710;231;68606;-72
2023/01/06 09:14:47;;;;;;;;;;;;;;;26.45;48.83;97416.13;613681;231;68724;-72
2023/01/06 09:17:15;;;;;;;;;;;;;;;26.44;49.03;97419.94;613691;231;64948;-72
2023/01/06 09:19:42;;;;;;;;;;;;;;;26.43;48.57;97419.11;613693;231;68802;-73
2023/01/06 09:22:10;;;;;;;;;;;;;;;26.44;48.05;97411.84;613697;231;68577;-71
2023/01/06 09:24:37;;;;;;;;;;;;;;;26.42;44.33;97412.13;613724;231;62645;-70
2023/01/06 09:27:06;;;;;;;;;;;;;;;26.44;49.56;97417.23;613641;231;68640;-71
2023/01/06 09:29:33;;;;;;;;;;;;;;;26.44;48.34;97409.16;614527;230;68331;-72
2023/01/06 09:32:02;;;;;;;;;;;;;;;26.44;48.90;97419.94;615076;230;65052;-72
2023/01/06 09:34:30;;;;;;;;;;;;;;;26.43;50.05;97404.84;614993;230;68457;-71
2023/01/06 09:36:57;;;;;;;;;;;;;;;26.43;50.00;97421.80;614953;230;68573;-70
2023/01/06 09:39:25;;;;;;;;;;;;;;;26.43;48.14;97429.89;614919;230;65032;-70
2023/01/06 09:41:57;;;;;;;;;;;;;;;26.44;48.20;97414.55;614893;230;66649;-71
2023/01/06 09:44:32;;;;;;;;;;;;;;;26.43;47.86;97413.72;614876;230;52224;-70
2023/01/06 09:47:01;;;;;;;;;;;;;;;26.43;49.78;97410.23;614883;230;64917;-69
2023/01/06 09:49:39;;;;;;;;;;;;;;;26.43;48.23;97407.53;614836;230;69454;-70
2023/01/06 09:52:08;;;;;;;;;;;;;;;26.43;46.62;97388.67;614949;230;66541;-72
2023/01/06 09:57:17;;;;;;;;;;;;;;;26.42;47.02;97393.27;624010;227;38963;-69
2023/01/06 09:59:46;;;;;;;;;;;;;;;26.42;47.78;97400.56;624246;227;66266;-70
2023/01/06 10:02:15;;;;;;;;;;;;;;;26.42;47.86;97395.97;624197;226;62851;-69
2023/01/06 10:04:43;;;;;;;;;;;;;;;26.41;47.71;97383.59;627409;225;68367;-69
2023/01/06 10:07:12;;;;;;;;;;;;;;;26.42;46.62;97405.95;627613;226;68569;-71
2023/01/06 10:09:56;;;;;;;;;;;;;;;26.41;48.86;97404.33;627490;225;62785;-72
2023/01/06 10:12:31;;;;;;;;;;;;;;;26.40;48.78;97400.05;627511;225;68331;-69
2023/01/06 10:15:15;;;;;;;;;;;;;;;26.40;48.73;97400.84;627379;225;68384;-70
2023/01/06 10:17:47;;;;;;;;;;;;;;;26.41;48.81;97404.33;627585;226;63027;-70
2023/01/06 10:20:31;;;;;;;;;;;;;;;26.41;47.05;97390.86;627515;225;66079;-70
2023/01/06 10:23:15;;;;;;;;;;;;;;;26.40;48.01;97389.27;627453;225;68470;-71
2023/01/06 10:25:47;;;;;;;;;;;;;;;26.41;47.58;97393.55;627359;225;63872;-70
2023/01/06 10:28:28;;;;;;;;;;;;;;;26.41;46.80;97393.55;627525;225;68620;-70
2023/01/06 10:30:55;;;;;;;;;;;;;;;26.40;46.66;97389.27;627460;225;68896;-68
2023/01/06 10:33:26;;;;;;;;;;;;;;;26.40;47.29;97384.67;627571;226;65135;-69
2023/01/06 10:35:54;;;;;;;;;;;;;;;26.42;48.35;97373.61;627664;226;68637;-69
2023/01/06 10:38:23;;;;;;;;;;;;;;;26.40;49.09;97379.28;627588;226;68997;-69
2023/01/06 10:40:52;;;;;;;;;;;;;;;26.41;48.65;97396.25;627607;226;65022;-69
2023/01/06 10:43:22;;;;;;;;;;;;;;;26.40;48.81;97387.37;624296;224;68673;-70
2023/01/06 10:45:50;;;;;;;;;;;;;;;26.41;48.19;97375.52;624445;224;68603;-69
2023/01/06 10:48:22;;;;;;;;;;;;;;;26.41;49.20;97386.30;625647;224;64884;-69
2023/01/06 10:50:49;;;;;;;;;;;;;;;26.43;49.80;97380.59;626525;225;66281;-67
2023/01/06 10:53:17;;;;;;;;;;;;;;;26.43;46.18;97370.60;624488;225;66452;-68
2023/01/06 10:55:49;;;;;;;;;;;;;;;26.44;48.52;97368.73;623569;227;62926;-68
2023/01/06 10:58:17;;;;;;;;;;;;;;;26.45;48.83;97362.23;625230;226;68837;-69
2023/01/06 11:00:56;;;;;;;;;;;;;;;26.45;48.59;97354.94;627493;226;68869;-67
2023/01/06 11:03:23;;;;;;;;;;;;;;;26.46;46.69;97353.04;627563;226;62996;-67
2023/01/06 11:06:07;;;;;;;;;;;;;;;26.45;44.06;97362.23;627549;225;66369;-68
2023/01/06 11:08:35;;;;;;;;;;;;;;;26.46;48.10;97358.43;629475;224;68567;-69
2023/01/06 11:11:04;;;;;;;;;;;;;;;26.46;50.15;97353.83;629590;225;65093;-68
2023/01/06 11:13:35;;;;;;;;;;;;;;;26.45;49.33;97340.67;629610;225;52149;-67
2023/01/06 11:16:04;;;;;;;;;;;;;;;26.44;48.71;97341.78;629578;225;66468;-67
2023/01/06 11:18:33;;;;;;;;;;;;;;;26.43;50.50;97342.86;629629;225;64893;-68
2023/01/06 11:21:02;;;;;;;;;;;;;;;26.43;49.66;97332.08;629501;224;68779;-68
2023/01/06 11:23:30;;;;;;;;;;;;;;;26.43;48.64;97348.25;628762;224;68809;-68
2023/01/06 11:25:59;;;;;;;;;;;;;;;26.44;48.50;97333.70;629592;225;65238;-69
2023/01/06 11:28:26;;;;;;;;;;;;;;;26.43;47.31;97318.61;629203;224;68717;-68
2023/01/06 11:31:12;;;;;;;;;;;;;;;26.46;48.38;97318.01;629588;225;69441;-68
2023/01/06 11:33:53;;;;;;;;;;;;;;;26.45;47.42;97313.73;629632;225;65189;-68
2023/01/06 11:36:23;;;;;;;;;;;;;;;26.45;49.58;97313.73;629585;225;68638;-68
2023/01/06 11:38:52;;;;;;;;;;;;;;;26.45;48.63;97319.91;629637;225;68440;-68
2023/01/06 11:41:24;;;;;;;;;;;;;;;26.46;49.58;97315.31;629560;225;65076;-68
2023/01/06 11:43:53;;;;;;;;;;;;;;;26.47;47.73;97314.23;629420;225;68560;-68
2023/01/06 11:46:22;;;;;;;;;;;;;;;26.48;48.67;97318.52;629533;225;66825;-68
2023/01/06 11:48:51;;;;;;;;;;;;;;;26.49;48.21;97328.19;629641;225;64783;-70
2023/01/06 11:51:20;;;;;;;;;;;;;;;26.51;48.42;97315.25;629399;224;68689;-69
2023/01/06 11:53:56;;;;;;;;;;;;;;;26.52;48.74;97314.17;629226;224;66268;-69
2023/01/06 11:56:24;;;;;;;;;;;;;;;26.52;48.28;97314.17;629492;225;64900;-71
2023/01/06 11:58:53;;;;;;;;;;;;;;;26.52;46.97;97309.57;629590;225;68630;-69
2023/01/06 12:01:35;;;;;;;;;;;;;;;26.53;41.68;97310.36;627505;225;68709;-65
2023/01/06 12:04:13;;;;;;;;;;;;;;;26.61;42.96;97309.66;629586;225;63261;-67
2023/01/06 12:06:42;;;;;;;;;;;;;;;26.65;47.31;97317.94;624013;225;68677;-69
2023/01/06 12:09:23;;;;;;;;;;;;;;;26.67;41.70;97313.84;629521;224;68673;-69
2023/01/06 12:11:51;;;;;;;;;;;;;;;26.69;46.80;97311.65;629515;225;62758;-69
2023/01/06 12:14:23;;;;;;;;;;;;;;;26.67;46.51;97313.05;629601;225;69005;-69
2023/01/06 12:16:55;;;;;;;;;;;;;;;26.66;46.14;97320.34;629650;225;68455;-77
2023/01/06 12:19:36;;;;;;;;;;;;;;;26.67;48.46;97326.53;629580;225;64873;-69
2023/01/06 12:22:05;;;;;;;;;;;;;;;26.67;48.93;97332.71;629612;225;66466;-70
2023/01/06 12:24:34;;;;;;;;;;;;;;;26.68;48.73;97328.94;629546;225;68543;-70
2023/01/06 12:27:03;;;;;;;;;;;;;;;26.69;49.14;97330.52;629591;225;63084;-70
2023/01/06 12:29:31;;;;;;;;;;;;;;;26.70;48.96;97323.23;629519;225;67361;-72
2023/01/06 12:32:09;;;;;;;;;;;;;;;26.70;46.56;97325.92;629487;225;66665;-68
2023/01/06 12:34:38;;;;;;;;;;;;;;;26.72;46.47;97327.22;629496;224;62785;-67
2023/01/06 12:37:16;;;;;;;;;;;;;;;26.74;46.12;97325.03;629660;225;69455;-68
2023/01/06 12:39:57;;;;;;;;;;;;;;;26.76;46.99;97336.32;629545;225;66693;-68
2023/01/06 12:42:35;;;;;;;;;;;;;;;26.78;46.84;97336.00;629385;225;62881;-68
2023/01/06 12:45:14;;;;;;;;;;;;;;;26.79;48.28;97342.98;628919;225;66516;-68
2023/01/06 12:47:47;;;;;;;;;;;;;;;26.80;47.34;97347.30;629464;225;66398;-68
2023/01/06 12:50:18;;;;;;;;;;;;;;;26.80;48.13;97341.90;629424;225;65179;-70
2023/01/06 12:52:57;;;;;;;;;;;;;;;26.80;47.21;97358.08;629217;224;66529;-73
2023/01/06 12:55:25;;;;;;;;;;;;;;;26.79;46.82;97351.07;628530;224;68492;-72
2023/01/06 12:57:54;;;;;;;;;;;;;;;26.79;46.52;97353.77;627271;225;62736;-73
2023/01/06 13:00:29;;;;;;;;;;;;;;;26.80;46.61;97352.69;627005;226;66426;-71
2023/01/06 13:03:15;;;;;;;;;;;;;;;26.79;47.23;97359.98;627114;225;68898;-71
2023/01/06 13:06:02;;;;;;;;;;;;;;;26.79;48.18;97357.28;626838;226;62952;-71
2023/01/06 13:08:46;;;;;;;;;;;;;;;26.79;48.04;97354.59;627136;225;66440;-71
2023/01/06 13:11:27;;;;;;;;;;;;;;;26.78;46.98;97361.06;627500;226;68599;-71